Flugplatz Koblenz-Winningen

Für EDRK sind keine METAR/TAF Berichte vorhanden.
Es werden die Flugwettermeldungen vom Flugplatz Buchel Airport in 37 km Entfernung angezeigt.

Bericht für ETSB

vom 28.01. um 16:03 UTC

Wind 14 kt aus 250° in Böen 25 kt

Sichtweite 10 km oder mehr

gering bewölkt in 1300 ft

aufgelockert bewölkt in 2000 ft

aufgebrochene Bewölkung in 16000 ft

Temperatur 1.0°C

Taupunkt -2.0°C

Luftfeuchtigkeit 80%

Luftdruck 999 hPa

ETSB 281603Z 25014G25KT 9999 FEW013CB SCT020 BKN160 01/M02 Q0999 BLU BLU TEMPO YLO

Prognose für ETSB

vom 28.01. um 00:00 UTC

Zwischen 00:00 UTC und 00:00 UTC

Wind 15 kt aus 250° in Böen 25 kt

Sichtweite 10 km oder mehr

keine signifikanten Wettererscheinungen

aufgebrochene Bewölkung in 2500 ft


Zwischen 00:00 UTC und 00:00 UTC zeitweise

Wind 15 kt aus 260° in Böen 30 kt

Sichtweite 1600 m

Code: SHGS

Schneeschauer

aufgebrochene Bewölkung in 500 ft

aufgebrochene Bewölkung in 1000 ft

TAF ETSB 281425Z 2815/2824 25015G25KT 9999 NSW BKN025 TEMPO 2815/2824 26015G30KT 1600 SHGSSN BKN005 BKN010CB BY ETGL
Impressum